^^
Datos históricos de la estación: Murcia-Puente Tocinos
Diario Informe para Enero 25, 2021 Unidades:  Métrico    Ingés   Ambas
Diario Semanal Mensual Anual
  Máxima: Mínima: Promedio:
Temperatura: 21.1 °C 11.7 °C 17 °C
Punto de rocio: 10.2 °C 4 °C 7.1 °C
Humedad: 63% 44% 53%
Velocidad viento: 18km/h 0km/h 6.2km/h
Racha viento: 33.8km/h - -
Viento- - SSO
Presión: 1014.8 hPa 1009.8 hPa -
Precipitación: 0.0 mm    
 
 
Tabla de datos para Enero 25, 2021
Hora Temperatura Punto de rocio Presión Viento Velocidad viento Racha viento Humedad Intensidad lluvia(por hora) Nubes
00:04 15.8 °C 4.5 °C 1013.9 hPa SSO 5.8 km/h 11.1 km/h 47% 0.0 mm
00:09 15.8 °C 4.5 °C 1014.0 hPa SSO 5.8 km/h 11.1 km/h 47% 0.0 mm
00:14 15.8 °C 4.5 °C 1014.0 hPa Sur 5.8 km/h 11.9 km/h 47% 0.0 mm
00:19 15.8 °C 4.3 °C 1014.0 hPa Sur 6.3 km/h 11.1 km/h 46.4% 0.0 mm
00:24 15.8 °C 4.2 °C 1014.0 hPa Sur 6.5 km/h 11.3 km/h 46% 0.0 mm
00:29 15.8 °C 4.2 °C 1014.0 hPa SSE 6.8 km/h 10.3 km/h 46% 0.0 mm
00:34 15.8 °C 4.3 °C 1014.0 hPa SSE 6.9 km/h 11.3 km/h 46.7% 0.0 mm
00:39 15.7 °C 4.4 °C 1014.0 hPa Sur 7.4 km/h 11.9 km/h 47% 0.0 mm
00:44 15.6 °C 4.3 °C 1014.0 hPa SSO 7.6 km/h 11.3 km/h 47% 0.0 mm
00:49 15.6 °C 4.3 °C 1014.0 hPa SSO 7.6 km/h 11.3 km/h 47% 0.0 mm
00:54 15.6 °C 4.3 °C 1014.0 hPa SO 7.6 km/h 13.7 km/h 47% 0.0 mm
00:59 15.6 °C 4.3 °C 1014.0 hPa SO 7.6 km/h 14.5 km/h 47% 0.0 mm
01:04 15.6 °C 4.3 °C 1014.0 hPa SO 7.6 km/h 11.3 km/h 47% 0.0 mm
01:09 15.4 °C 4.2 °C 1014.0 hPa SO 6.3 km/h 9.7 km/h 47% 0.0 mm
01:14 15.4 °C 4.1 °C 1014.0 hPa OSO 5.8 km/h 11.1 km/h 47% 0.0 mm
01:19 15.4 °C 4.1 °C 1014.0 hPa SO 5.2 km/h 11.9 km/h 47% 0.0 mm
01:24 15.5 °C 4.2 °C 1014.0 hPa SO 5 km/h 11.9 km/h 47% 0.0 mm
01:29 15.6 °C 4.2 °C 1014.0 hPa SO 6.9 km/h 18.5 km/h 46.7% 0.0 mm
01:34 15.7 °C 4.1 °C 1014.0 hPa OSO 7.6 km/h 19.3 km/h 46% 0.0 mm
01:39 15.8 °C 4.1 °C 1014.0 hPa SO 8.2 km/h 16.7 km/h 46% 0.0 mm
01:44 15.8 °C 4.2 °C 1013.9 hPa SO 8.4 km/h 16.1 km/h 46% 0.0 mm
01:49 15.7 °C 4.1 °C 1013.9 hPa SO 7.8 km/h 12.9 km/h 46% 0.0 mm
01:54 15.7 °C 4.1 °C 1013.9 hPa OSO 7.6 km/h 9.7 km/h 46% 0.0 mm
01:59 15.7 °C 4.1 °C 1013.8 hPa SO 5.7 km/h 10.3 km/h 46% 0.0 mm
02:04 15.6 °C 4 °C 1013.8 hPa SSO 5 km/h 13.7 km/h 46% 0.0 mm
02:09 15.7 °C 4.1 °C 1013.8 hPa SSO 6.4 km/h 13 km/h 46% 0.0 mm
02:14 15.7 °C 4.1 °C 1013.8 hPa SO 6.9 km/h 11.3 km/h 46% 0.0 mm
02:19 15.7 °C 4.1 °C 1013.8 hPa SSO 6.6 km/h 11.1 km/h 46% 0.0 mm
02:24 15.7 °C 4.1 °C 1013.8 hPa SO 6.5 km/h 11.3 km/h 46% 0.0 mm
02:29 15.7 °C 4.1 °C 1013.6 hPa SO 6 km/h 11.3 km/h 46% 0.0 mm
02:34 15.8 °C 4.2 °C 1013.6 hPa OSO 5.8 km/h 9.7 km/h 46% 0.0 mm
02:39 15.8 °C 4.2 °C 1013.7 hPa Oeste 5.8 km/h 18.5 km/h 46% 0.0 mm
02:44 15.8 °C 4.2 °C 1013.7 hPa OSO 5.8 km/h 19.3 km/h 46% 0.0 mm
02:49 15.8 °C 4.2 °C 1013.7 hPa OSO 7.1 km/h 14.8 km/h 46% 0.0 mm
02:54 15.8 °C 4.2 °C 1013.7 hPa OSO 7.6 km/h 14.5 km/h 46% 0.0 mm
02:59 15.7 °C 4.4 °C 1013.6 hPa Oeste 7.1 km/h 12.9 km/h 46.9% 0.0 mm
03:04 15.7 °C 4.4 °C 1013.6 hPa ONO 6.9 km/h 11.1 km/h 47% 0.0 mm
03:09 15.6 °C 4.3 °C 1013.8 hPa NO 5.5 km/h 11.3 km/h 47% 0.0 mm
03:14 15.5 °C 4.3 °C 1013.8 hPa Este 5 km/h 9.5 km/h 47.1% 0.0 mm
03:19 15.2 °C 4.4 °C 1013.8 hPa ESE 5 km/h 11.1 km/h 48.4% 0.0 mm
03:24 14.8 °C 4.2 °C 1013.8 hPa ESE 5 km/h 11.9 km/h 49% 0.0 mm
03:29 14.8 °C 4.2 °C 1013.7 hPa ESE 7.5 km/h 11.9 km/h 49% 0.0 mm
03:34 14.8 °C 4.2 °C 1013.7 hPa ESE 8.4 km/h 11.3 km/h 49% 0.0 mm
03:39 14.8 °C 4.2 °C 1013.7 hPa Este 7.3 km/h 11.3 km/h 49% 0.0 mm
03:44 14.8 °C 4.2 °C 1013.6 hPa ESE 6.9 km/h 8 km/h 49% 0.0 mm
03:49 14.8 °C 4.2 °C 1013.6 hPa ESE 4.2 km/h 6.4 km/h 49.1% 0.0 mm
03:54 14.8 °C 4.2 °C 1013.6 hPa ESE 3.2 km/h 5.8 km/h 49.3% 0.0 mm
03:59 14.8 °C 4.3 °C 1013.5 hPa ESE 3 km/h 6.4 km/h 49.4% 0.0 mm
04:04 14.7 °C 4.4 °C 1013.5 hPa ESE 2.9 km/h 5.8 km/h 50% 0.0 mm
04:09 14.7 °C 4.4 °C 1013.5 hPa SE 2.9 km/h 7.6 km/h 50% 0.0 mm
04:14 14.6 °C 4.5 °C 1013.5 hPa SSE 2.9 km/h 9.5 km/h 50.6% 0.0 mm
04:19 14.4 °C 4.4 °C 1013.5 hPa SSE 5.1 km/h 9.7 km/h 51% 0.0 mm
04:24 14.3 °C 4.5 °C 1013.5 hPa SE 5.8 km/h 8.4 km/h 51.9% 0.0 mm
04:29 14.2 °C 4.5 °C 1013.4 hPa SE 5.8 km/h 8 km/h 52% 0.0 mm
04:34 14.2 °C 4.5 °C 1013.4 hPa SSE 5.8 km/h 8 km/h 52% 0.0 mm
04:39 14.3 °C 4.5 °C 1013.4 hPa SSE 5.2 km/h 8 km/h 52% 0.0 mm
04:44 14.3 °C 4.6 °C 1013.4 hPa SSE 5 km/h 7.4 km/h 52% 0.0 mm
04:49 14.3 °C 4.5 °C 1013.4 hPa SSE 3.4 km/h 8 km/h 52% 0.0 mm
04:54 14.2 °C 4.6 °C 1013.4 hPa SSE 2.9 km/h 5.8 km/h 52.3% 0.0 mm
04:59 14.1 °C 4.6 °C 1013.4 hPa ESE 2.4 km/h 7.4 km/h 53% 0.0 mm
05:04 13.9 °C 4.6 °C 1013.4 hPa NO 2.2 km/h 8.4 km/h 53.4% 0.0 mm
05:09 13.7 °C 4.6 °C 1013.4 hPa ONO 3 km/h 8 km/h 54% 0.0 mm
05:14 13.6 °C 4.5 °C 1013.3 hPa ONO 3.2 km/h 8 km/h 54.3% 0.0 mm
05:19 13.4 °C 4.6 °C 1013.3 hPa ONO 2.5 km/h 4.8 km/h 55% 0.0 mm
05:24 13.3 °C 4.7 °C 1013.3 hPa OSO 2.2 km/h 7.4 km/h 55.7% 0.0 mm
05:29 13.3 °C 4.7 °C 1013.1 hPa SSO 2.7 km/h 8 km/h 56% 0.0 mm
05:34 13.3 °C 4.7 °C 1013.1 hPa SSO 2.9 km/h 6.4 km/h 56% 0.0 mm
05:39 13.3 °C 4.8 °C 1013.1 hPa SSO 3.1 km/h 5 km/h 56.1% 0.0 mm
05:44 13.3 °C 4.9 °C 1013.0 hPa SSO 3.2 km/h 7.6 km/h 56.9% 0.0 mm
05:49 13.3 °C 4.7 °C 1013.0 hPa SSO 3.7 km/h 9.5 km/h 56% 0.0 mm
05:54 13.3 °C 4.7 °C 1013.0 hPa SSO 3.9 km/h 10 km/h 56% 0.0 mm
05:59 13.3 °C 4.7 °C 1013.0 hPa SSO 5.9 km/h 9.7 km/h 56% 0.0 mm
06:04 13.3 °C 4.7 °C 1013.0 hPa SO 6.5 km/h 8.4 km/h 56% 0.0 mm
06:09 13.3 °C 4.7 °C 1013.0 hPa SO 6 km/h 8 km/h 55.9% 0.0 mm
06:14 13.3 °C 4.6 °C 1012.8 hPa OSO 5.8 km/h 8 km/h 55.3% 0.0 mm
06:19 13.3 °C 4.7 °C 1012.8 hPa Oeste 4.3 km/h 8 km/h 56% 0.0 mm
06:24 13.2 °C 4.6 °C 1012.9 hPa Oeste 3.9 km/h 8 km/h 56% 0.0 mm
06:29 13.1 °C 4.7 °C 1012.9 hPa Oeste 3.1 km/h 5 km/h 56.9% 0.0 mm
06:34 12.9 °C 4.7 °C 1012.9 hPa OSO 2.9 km/h 8.4 km/h 57.2% 0.0 mm
06:39 12.8 °C 4.7 °C 1012.9 hPa SSO 4.5 km/h 11.1 km/h 58% 0.0 mm
06:44 12.8 °C 4.7 °C 1012.9 hPa SSE 5 km/h 11.3 km/h 58% 0.0 mm
06:49 12.8 °C 4.9 °C 1012.9 hPa ESE 6.5 km/h 11.3 km/h 58.6% 0.0 mm
06:54 12.6 °C 4.8 °C 1012.9 hPa Sur 6.9 km/h 8 km/h 59% 0.0 mm
06:59 12.6 °C 4.8 °C 1012.9 hPa SSO 5.2 km/h 8 km/h 59.1% 0.0 mm
07:04 12.6 °C 5 °C 1012.9 hPa SSE 4.7 km/h 8.4 km/h 60% 0.0 mm
07:09 12.5 °C 4.9 °C 1013.0 hPa SSE 3.5 km/h 8 km/h 60% 0.0 mm
07:14 12.4 °C 4.9 °C 1013.0 hPa SSE 3.2 km/h 3.2 km/h 60.5% 0.0 mm
07:19 12.4 °C 5 °C 1013.0 hPa SSE 0.8 km/h 9.5 km/h 61% 0.0 mm
07:24 12.2 °C 4.9 °C 1013.1 hPa Calm   10 km/h 61.2% 0.0 mm
07:25 12.1 °C 5.1 °C 1013.1 hPa Calm   9.7 km/h 62% 0.0 mm
07:34 11.8 °C 5 °C 1013.1 hPa ESE 6.5 km/h 10 km/h 62.9% 0.0 mm
07:39 11.7 °C 4.9 °C 1013.3 hPa SE 6.5 km/h 11.1 km/h 63% 0.0 mm
07:44 11.7 °C 4.9 °C 1013.3 hPa ESE 6.5 km/h 11.3 km/h 63% 0.0 mm
07:49 11.8 °C 5 °C 1013.3 hPa SE 6 km/h 9.7 km/h 63% 0.0 mm
07:54 11.8 °C 4.9 °C 1013.3 hPa SE 5.8 km/h 10 km/h 62.3% 0.0 mm
07:59 12 °C 4.9 °C 1013.3 hPa SE 5.8 km/h 9.7 km/h 62% 0.0 mm
08:04 12.1 °C 4.9 °C 1013.3 hPa SE 5.8 km/h 8.4 km/h 61.3% 0.0 mm
08:09 12.2 °C 4.8 °C 1013.3 hPa SSE 6.3 km/h 9.3 km/h 61% 0.0 mm
08:14 12.2 °C 4.8 °C 1013.2 hPa SSE 6.5 km/h 9.7 km/h 61% 0.0 mm
08:19 12.2 °C 4.9 °C 1013.2 hPa Sur 6 km/h 9.7 km/h 61% 0.0 mm
08:24 12.2 °C 4.9 °C 1013.2 hPa Sur 5.8 km/h 6.4 km/h 61% 0.0 mm
08:29 12.3 °C 5 °C 1013.1 hPa SE 3.8 km/h 5.6 km/h 61% 0.0 mm
08:34 12.2 °C 4.9 °C 1013.1 hPa SE 3.2 km/h 4.8 km/h 61% 0.0 mm
08:39 12.2 °C 5 °C 1013.1 hPa SE 2.5 km/h 4.7 km/h 61.5% 0.0 mm
08:44 12.2 °C 5.1 °C 1013.1 hPa SE 2.2 km/h 4.8 km/h 62% 0.0 mm
08:49 12.2 °C 5.1 °C 1013.1 hPa SE 2.2 km/h 4.8 km/h 62% 0.0 mm
08:54 12.2 °C 5.1 °C 1013.2 hPa SE 2.2 km/h 4.8 km/h 62% 0.0 mm
08:59 12.2 °C 5.3 °C 1013.2 hPa SE 0.5 km/h 3.2 km/h 62.7% 0.0 mm
09:04 12.5 °C 5.5 °C 1013.2 hPa Calm   3.9 km/h 62.5% 0.0 mm
09:09 12.7 °C 5.5 °C 1013.3 hPa Calm   4.7 km/h 61.7% 0.0 mm
09:14 12.8 °C 5.5 °C 1013.3 hPa Calm   9.5 km/h 61% 0.0 mm
09:19 12.8 °C 5.6 °C 1013.3 hPa SSE 3.6 km/h 9.7 km/h 61.5% 0.0 mm
09:24 12.8 °C 5.7 °C 1013.4 hPa SE 4.7 km/h 11.1 km/h 62% 0.0 mm
09:29 12.8 °C 5.7 °C 1013.4 hPa SSE 6 km/h 13 km/h 62% 0.0 mm
09:34 12.9 °C 5.8 °C 1013.4 hPa SE 6.5 km/h 12.9 km/h 62% 0.0 mm
09:39 13 °C 5.7 °C 1013.4 hPa SSE 7.3 km/h 9.7 km/h 61.1% 0.0 mm
09:44 13 °C 5.6 °C 1013.3 hPa SSE 7.6 km/h 9.7 km/h 60.5% 0.0 mm
09:49 13.2 °C 5.7 °C 1013.3 hPa SE 5.5 km/h 8 km/h 60.4% 0.0 mm
09:54 13.3 °C 5.6 °C 1013.3 hPa SE 4.7 km/h 8 km/h 59.7% 0.0 mm
09:59 13.4 °C 5.6 °C 1013.3 hPa SSE 3.6 km/h 6.4 km/h 59% 0.0 mm
10:04 13.5 °C 5.6 °C 1013.3 hPa SSO 3.2 km/h 7.4 km/h 59% 0.0 mm
10:09 13.7 °C 5.6 °C 1013.3 hPa SSO 3.7 km/h 8.4 km/h 58% 0.0 mm
10:14 13.9 °C 5.6 °C 1013.3 hPa SO 3.9 km/h 8 km/h 57% 0.0 mm
10:19 14.2 °C 5.5 °C 1013.3 hPa OSO 3.9 km/h 8 km/h 56% 0.0 mm
10:24 14.3 °C 5.4 °C 1013.4 hPa OSO 3.9 km/h 5.6 km/h 55% 0.0 mm
10:29 14.6 °C 5.7 °C 1013.4 hPa OSO 3.2 km/h 3.7 km/h 55% 0.0 mm
10:34 14.8 °C 5.8 °C 1013.4 hPa OSO 2.9 km/h 3.7 km/h 55% 0.0 mm
10:39 15 °C 5.8 °C 1013.4 hPa OSO 0.8 km/h 3.7 km/h 54.2% 0.0 mm
10:44 15.3 °C 6.2 °C 1013.4 hPa Calm   4.7 km/h 54.5% 0.0 mm
10:49 15.8 °C 6.1 °C 1013.4 hPa OSO 1.7 km/h 4.8 km/h 52.5% 0.0 mm
10:54 16.4 °C 6.2 °C 1013.4 hPa Sur 2.2 km/h 4.8 km/h 50.7% 0.0 mm
10:59 16.9 °C 6.2 °C 1013.2 hPa SSE 2.2 km/h 7.6 km/h 49.4% 0.0 mm
11:04 17.1 °C 6.3 °C 1013.2 hPa Oeste 2.2 km/h 8 km/h 49% 0.0 mm
11:09 17 °C 6.3 °C 1013.3 hPa SO 3 km/h 8 km/h 49.4% 0.0 mm
11:14 16.9 °C 6.4 °C 1013.3 hPa OSO 3.2 km/h 9.5 km/h 50% 0.0 mm
11:19 16.8 °C 6.5 °C 1013.3 hPa SO 3.7 km/h 9.7 km/h 50.4% 0.0 mm
11:24 16.8 °C 6.6 °C 1013.3 hPa SSO 3.9 km/h 9.5 km/h 51% 0.0 mm
11:29 16.8 °C 6.6 °C 1013.2 hPa SO 4.7 km/h 9.7 km/h 51% 0.0 mm
11:34 16.8 °C 6.8 °C 1013.2 hPa OSO 5 km/h 8.7 km/h 51.6% 0.0 mm
11:39 16.9 °C 6.9 °C 1013.3 hPa Oeste 4.1 km/h 9.7 km/h 51.6% 0.0 mm
11:44 16.9 °C 6.8 °C 1013.3 hPa Oeste 3.9 km/h 8.4 km/h 51.4% 0.0 mm
11:49 17 °C 6.9 °C 1013.3 hPa SO 4.7 km/h 9.5 km/h 51.3% 0.0 mm
11:54 17.1 °C 6.9 °C 1013.3 hPa SSO 5 km/h 9.7 km/h 51.1% 0.0 mm
11:59 17.3 °C 7.1 °C 1013.0 hPa SSO 5.6 km/h 10 km/h 51.2% 0.0 mm
12:04 17.5 °C 7.3 °C 1013.0 hPa Sur 5.8 km/h 11.1 km/h 51% 0.0 mm
12:09 17.8 °C 7.3 °C 1013.0 hPa SSO 6.3 km/h 11.3 km/h 50.3% 0.0 mm
12:14 17.8 °C 7.5 °C 1012.8 hPa SSO 6.5 km/h 9.7 km/h 50.8% 0.0 mm
12:19 18 °C 7.6 °C 1012.8 hPa SSO 6 km/h 9.7 km/h 50.5% 0.0 mm
12:24 18.3 °C 7.7 °C 1012.8 hPa Sur 5.8 km/h 10.3 km/h 49.9% 0.0 mm
12:29 18.7 °C 7.8 °C 1012.5 hPa SSO 5.8 km/h 11.3 km/h 49.1% 0.0 mm
12:34 18.9 °C 7.9 °C 1012.5 hPa SSO 5.8 km/h 13 km/h 48.7% 0.0 mm
12:39 19.3 °C 8 °C 1012.5 hPa SO 6.6 km/h 14.8 km/h 47.9% 0.0 mm
12:44 19.5 °C 7.9 °C 1012.3 hPa SO 6.9 km/h 16.7 km/h 47% 0.0 mm
12:49 19.6 °C 8 °C 1012.3 hPa SO 6.9 km/h 16.1 km/h 47% 0.0 mm
12:54 19.7 °C 7.9 °C 1012.3 hPa SSO 6.9 km/h 9.3 km/h 46.5% 0.0 mm
12:59 19.8 °C 7.9 °C 1011.9 hPa Oeste 5.3 km/h 9.7 km/h 46% 0.0 mm
13:04 20 °C 8 °C 1011.9 hPa SO 4.7 km/h 14 km/h 46% 0.0 mm
13:09 20.2 °C 8.1 °C 1011.9 hPa SO 5.5 km/h 16.4 km/h 45.6% 0.0 mm
13:14 20.4 °C 8 °C 1011.6 hPa SSO 5.8 km/h 16.7 km/h 45% 0.0 mm
13:19 20.5 °C 8.2 °C 1011.6 hPa SO 8 km/h 19 km/h 45% 0.0 mm
13:24 20.7 °C 8.3 °C 1011.6 hPa SO 8.7 km/h 27.8 km/h 45% 0.0 mm
13:29 20.8 °C 8.4 °C 1011.4 hPa SSO 12.8 km/h 30.6 km/h 45% 0.0 mm
13:34 20.8 °C 8.4 °C 1011.4 hPa SO 14 km/h 29.6 km/h 44.9% 0.0 mm
13:39 20.9 °C 8.4 °C 1011.4 hPa SO 14 km/h 27.4 km/h 44.7% 0.0 mm
13:44 20.9 °C 8.5 °C 1011.1 hPa SSO 14 km/h 24.1 km/h 45% 0.0 mm
13:49 20.9 °C 8.4 °C 1011.1 hPa SSO 12.7 km/h 33.3 km/h 44.7% 0.0 mm
13:54 20.9 °C 8.2 °C 1011.1 hPa SO 12.2 km/h 33.8 km/h 44% 0.0 mm
13:59 20.8 °C 8.2 °C 1011.0 hPa SO 16.8 km/h 33.3 km/h 44.2% 0.0 mm
14:04 20.8 °C 8.4 °C 1011.0 hPa OSO 18 km/h 33.8 km/h 45% 0.0 mm
14:09 20.8 °C 8.5 °C 1011.0 hPa OSO 16.6 km/h 27.8 km/h 45% 0.0 mm
14:14 20.8 °C 8.3 °C 1010.9 hPa OSO 16.1 km/h 31.7 km/h 44.5% 0.0 mm
14:19 20.8 °C 8.3 °C 1010.9 hPa SO 17.6 km/h 32.2 km/h 44.4% 0.0 mm
14:24 20.8 °C 8.4 °C 1010.9 hPa SO 18 km/h 27.4 km/h 44.9% 0.0 mm
14:29 20.8 °C 8.4 °C 1010.7 hPa SO 14.9 km/h 25.7 km/h 45% 0.0 mm
14:34 20.8 °C 8.4 °C 1010.7 hPa SO 13.7 km/h 25.9 km/h 45% 0.0 mm
14:39 20.7 °C 8.4 °C 1010.7 hPa SO 13.2 km/h 25.7 km/h 45% 0.0 mm
14:44 20.7 °C 8.5 °C 1010.5 hPa SO 13 km/h 20.9 km/h 45.5% 0.0 mm
14:49 20.7 °C 8.7 °C 1010.5 hPa SO 11 km/h 19.3 km/h 46% 0.0 mm
14:54 20.7 °C 8.7 °C 1010.5 hPa SSO 10.3 km/h 19.3 km/h 46% 0.0 mm
14:59 20.7 °C 8.7 °C 1010.3 hPa SO 9.7 km/h 23.3 km/h 46% 0.0 mm
15:04 20.7 °C 8.7 °C 1010.3 hPa SO 9.5 km/h 24.1 km/h 46% 0.0 mm
15:09 20.7 °C 8.7 °C 1010.3 hPa SSO 11.5 km/h 22.5 km/h 46% 0.0 mm
15:14 20.7 °C 8.7 °C 1010.1 hPa SSO 12.2 km/h 19.3 km/h 46% 0.0 mm
15:19 20.7 °C 8.6 °C 1010.1 hPa SSO 10.8 km/h 22.2 km/h 46% 0.0 mm
15:24 20.6 °C 8.8 °C 1010.1 hPa SSO 10.3 km/h 22.5 km/h 46.7% 0.0 mm
15:29 20.5 °C 8.8 °C 1010.1 hPa SSO 12.4 km/h 22.5 km/h 47% 0.0 mm
15:34 20.4 °C 8.7 °C 1010.1 hPa SSO 13 km/h 24.1 km/h 47% 0.0 mm
15:39 20.5 °C 8.8 °C 1010.1 hPa SSO 13 km/h 24.1 km/h 47% 0.0 mm
15:44 20.6 °C 8.9 °C 1010.0 hPa SSO 13 km/h 20.9 km/h 47% 0.0 mm
15:49 20.5 °C 8.9 °C 1010.0 hPa Sur 11.5 km/h 20.9 km/h 47.1% 0.0 mm
15:54 20.5 °C 8.9 °C 1010.0 hPa Sur 11.1 km/h 20.9 km/h 47.4% 0.0 mm
15:59 20.6 °C 9.1 °C 1009.9 hPa SSO 10.3 km/h 16.7 km/h 47.9% 0.0 mm
16:04 20.6 °C 9.1 °C 1009.9 hPa SSO 10 km/h 17.2 km/h 47.7% 0.0 mm
16:09 20.6 °C 9.1 °C 1009.9 hPa SSO 9.6 km/h 17.7 km/h 47.5% 0.0 mm
16:14 20.7 °C 9 °C 1009.9 hPa Sur 9.5 km/h 22.5 km/h 47% 0.0 mm
16:19 20.9 °C 9.1 °C 1009.9 hPa Sur 10.7 km/h 22.5 km/h 47% 0.0 mm
16:24 21 °C 9.3 °C 1009.9 hPa Sur 11.1 km/h 27.8 km/h 47% 0.0 mm
16:29 21 °C 9.3 °C 1009.9 hPa Sur 13.1 km/h 27.4 km/h 47% 0.0 mm
16:34 21 °C 9.5 °C 1009.9 hPa Sur 13.7 km/h 22.5 km/h 47.9% 0.0 mm
16:39 20.9 °C 9.5 °C 1009.9 hPa Sur 13.7 km/h 22.2 km/h 48% 0.0 mm
16:44 20.9 °C 9.5 °C 1009.8 hPa SSO 13.7 km/h 22.5 km/h 48% 0.0 mm
16:49 20.9 °C 9.5 °C 1009.8 hPa SSO 12.3 km/h 16.7 km/h 48% 0.0 mm
16:54 20.9 °C 9.5 °C 1009.9 hPa SSO 11.9 km/h 16.7 km/h 48% 0.0 mm
16:59 21 °C 9.6 °C 1009.9 hPa SSO 10.6 km/h 20.4 km/h 48.1% 0.0 mm
17:04 21 °C 9.6 °C 1009.9 hPa SSO 10.3 km/h 20.9 km/h 48% 0.0 mm
17:09 21.1 °C 9.7 °C 1009.9 hPa SSO 11.5 km/h 22.2 km/h 48% 0.0 mm
17:14 21 °C 9.8 °C 1009.9 hPa SSO 11.9 km/h 22.5 km/h 48.6% 0.0 mm
17:19 20.9 °C 9.8 °C 1009.9 hPa SSO 10.7 km/h 19.3 km/h 49% 0.0 mm
17:24 20.9 °C 9.8 °C 1010.0 hPa SO 10.3 km/h 17.2 km/h 49% 0.0 mm
17:29 20.9 °C 9.8 °C 1010.0 hPa SO 9.7 km/h 20.9 km/h 49% 0.0 mm
17:34 20.9 °C 9.8 °C 1010.0 hPa SO 9.5 km/h 20.9 km/h 49% 0.0 mm
17:39 20.9 °C 9.8 °C 1010.1 hPa SO 8.9 km/h 18.5 km/h 49% 0.0 mm
17:44 20.9 °C 9.8 °C 1010.1 hPa OSO 8.7 km/h 19.3 km/h 49% 0.0 mm
17:49 20.9 °C 9.8 °C 1010.1 hPa Oeste 8.5 km/h 12.9 km/h 49% 0.0 mm
17:54 20.9 °C 9.8 °C 1010.4 hPa ONO 8.4 km/h 11.1 km/h 49% 0.0 mm
17:59 20.8 °C 9.8 °C 1010.4 hPa NO 5.8 km/h 11.3 km/h 49.3% 0.0 mm
18:04 20.8 °C 10 °C 1010.4 hPa NO 5 km/h 7.4 km/h 50% 0.0 mm
18:09 20.7 °C 9.9 °C 1010.5 hPa ONO 3.4 km/h 8 km/h 50% 0.0 mm
18:14 20.7 °C 9.9 °C 1010.5 hPa NO 2.9 km/h 7.4 km/h 50% 0.0 mm
18:19 20.6 °C 9.8 °C 1010.5 hPa NO 2.9 km/h 8 km/h 50% 0.0 mm
18:24 20.5 °C 9.9 °C 1010.8 hPa NO 2.9 km/h 6.4 km/h 50.5% 0.0 mm
18:29 20.4 °C 9.9 °C 1010.8 hPa NO 3.2 km/h 7.4 km/h 51% 0.0 mm
18:34 20.3 °C 9.9 °C 1010.8 hPa NNO 3.2 km/h 8 km/h 51% 0.0 mm
18:39 20.3 °C 9.8 °C 1011.0 hPa NNO 3 km/h 6.4 km/h 51% 0.0 mm
18:44 20.2 °C 9.7 °C 1011.0 hPa NNO 2.9 km/h 5.8 km/h 51% 0.0 mm
18:49 20.2 °C 9.7 °C 1011.0 hPa NO 2.9 km/h 8.4 km/h 51% 0.0 mm
18:54 20.1 °C 9.8 °C 1011.1 hPa NO 2.9 km/h 11.9 km/h 51.6% 0.0 mm
18:59 20 °C 9.7 °C 1011.1 hPa ONO 4.5 km/h 11.3 km/h 51.7% 0.0 mm
19:04 19.9 °C 9.5 °C 1011.1 hPa ONO 5 km/h 11.3 km/h 51% 0.0 mm
19:09 19.9 °C 9.4 °C 1011.1 hPa ONO 3.7 km/h 5.6 km/h 51% 0.0 mm
19:14 19.9 °C 9.7 °C 1011.1 hPa SSE 3.2 km/h 10 km/h 52.1% 0.0 mm
19:19 19.8 °C 9.9 °C 1011.1 hPa SSE 4.3 km/h 9.7 km/h 52.8% 0.0 mm
19:24 19.7 °C 9.8 °C 1011.5 hPa SSE 4.7 km/h 9.7 km/h 53% 0.0 mm
19:29 19.7 °C 9.8 °C 1011.5 hPa SSE 5.5 km/h 8 km/h 53% 0.0 mm
19:34 19.7 °C 9.8 °C 1011.5 hPa SE 5.8 km/h 5.8 km/h 53% 0.0 mm
19:39 19.6 °C 10 °C 1011.5 hPa SE 3.8 km/h 7.4 km/h 53.8% 0.0 mm
19:44 19.5 °C 9.9 °C 1011.4 hPa Sur 3.2 km/h 9.3 km/h 54% 0.0 mm
19:49 19.4 °C 9.9 °C 1011.4 hPa Sur 3.7 km/h 9.7 km/h 54.1% 0.0 mm
19:54 19.3 °C 10 °C 1011.7 hPa SSE 3.9 km/h 6.4 km/h 55% 0.0 mm
19:59 19.2 °C 9.9 °C 1011.7 hPa SSE 3.4 km/h 6.4 km/h 55% 0.0 mm
20:04 19.1 °C 9.8 °C 1011.7 hPa Sur 3.2 km/h 8 km/h 55% 0.0 mm
20:09 19.1 °C 9.9 °C 1011.9 hPa SSO 3.2 km/h 7.4 km/h 55.3% 0.0 mm
20:14 19.1 °C 10.1 °C 1011.9 hPa SSO 3.2 km/h 8 km/h 55.9% 0.0 mm
20:19 19 °C 10 °C 1011.9 hPa ONO 3.2 km/h 7.6 km/h 56% 0.0 mm
20:24 18.8 °C 10 °C 1012.2 hPa NO 3.2 km/h 9.5 km/h 56.7% 0.0 mm
20:29 18.6 °C 9.9 °C 1012.2 hPa NO 4.6 km/h 9.7 km/h 57% 0.0 mm
20:34 18.5 °C 9.9 °C 1012.2 hPa NO 5 km/h 8 km/h 57% 0.0 mm
20:39 18.4 °C 9.7 °C 1012.2 hPa NO 4.1 km/h 8 km/h 57% 0.0 mm
20:44 18.4 °C 9.8 °C 1012.2 hPa NO 3.9 km/h 6.4 km/h 57.3% 0.0 mm
20:49 18.4 °C 10 °C 1012.2 hPa NO 3.1 km/h 4.8 km/h 58% 0.0 mm
20:54 18.4 °C 10 °C 1012.5 hPa NO 2.9 km/h 5.6 km/h 58% 0.0 mm
20:59 18.4 °C 10 °C 1012.5 hPa NO 2.4 km/h 5.6 km/h 58% 0.0 mm
21:04 18.4 °C 10 °C 1012.5 hPa Sur 2.2 km/h 5.6 km/h 58% 0.0 mm
21:09 18.4 °C 9.9 °C 1012.7 hPa SSO 2.7 km/h 5.6 km/h 57.7% 0.0 mm
21:14 18.5 °C 9.8 °C 1012.7 hPa SO 2.9 km/h 5.6 km/h 57% 0.0 mm
21:19 18.5 °C 10 °C 1012.7 hPa SO 2.4 km/h 4.8 km/h 57.6% 0.0 mm
21:24 18.4 °C 10 °C 1013.1 hPa SE 2.2 km/h 7.6 km/h 58% 0.0 mm
21:29 18.2 °C 10.1 °C 1013.1 hPa SE 3 km/h 9.5 km/h 59% 0.0 mm
21:34 17.9 °C 10 °C 1013.1 hPa SE 3.2 km/h 11.1 km/h 60% 0.0 mm
21:39 17.8 °C 10.1 °C 1013.2 hPa SE 5.1 km/h 11.3 km/h 60.9% 0.0 mm
21:44 17.7 °C 10.1 °C 1013.2 hPa SE 5.8 km/h 10 km/h 61% 0.0 mm
21:49 17.6 °C 10.1 °C 1013.2 hPa SE 6.3 km/h 11.1 km/h 61.2% 0.0 mm
21:54 17.6 °C 10.2 °C 1013.5 hPa SE 6.5 km/h 11.3 km/h 62% 0.0 mm
21:59 17.6 °C 10.2 °C 1013.5 hPa SE 5.1 km/h 8.4 km/h 62% 0.0 mm
22:04 17.5 °C 10.2 °C 1013.5 hPa SSE 4.7 km/h 8.7 km/h 62% 0.0 mm
22:09 17.5 °C 10.1 °C 1013.7 hPa SSE 5.5 km/h 9.7 km/h 62% 0.0 mm
22:14 17.5 °C 10.1 °C 1013.7 hPa SSE 5.8 km/h 9.7 km/h 62% 0.0 mm
22:19 17.6 °C 10.1 °C 1013.7 hPa SSO 5.8 km/h 10 km/h 61.2% 0.0 mm
22:24 17.9 °C 10 °C 1013.9 hPa SSO 5.8 km/h 10 km/h 60% 0.0 mm
22:29 18 °C 10.1 °C 1013.9 hPa SSE 6.3 km/h 9.7 km/h 59.9% 0.0 mm
22:34 18 °C 10 °C 1013.9 hPa SSO 6.5 km/h 9.5 km/h 59.7% 0.0 mm
22:39 18.1 °C 9.9 °C 1014.2 hPa SSO 6 km/h 11.1 km/h 59% 0.0 mm
22:44 18.1 °C 9.9 °C 1014.2 hPa Sur 5.8 km/h 11.3 km/h 59% 0.0 mm
22:49 18.1 °C 9.9 °C 1014.2 hPa SSE 6.3 km/h 9.7 km/h 59% 0.0 mm
22:54 18.1 °C 10 °C 1014.2 hPa SSE 6.5 km/h 11.1 km/h 59.2% 0.0 mm
22:59 17.9 °C 10 °C 1014.2 hPa SSE 6.5 km/h 11.3 km/h 60% 0.0 mm
23:04 17.8 °C 10 °C 1014.2 hPa SSE 6.5 km/h 9.7 km/h 60% 0.0 mm
23:09 17.8 °C 9.9 °C 1014.4 hPa SSE 6.5 km/h 11.1 km/h 60% 0.0 mm
23:14 17.7 °C 10 °C 1014.4 hPa SSE 6.5 km/h 11.3 km/h 60.8% 0.0 mm
23:19 17.7 °C 10.1 °C 1014.4 hPa SSE 7.3 km/h 11.3 km/h 61% 0.0 mm
23:24 17.7 °C 10.1 °C 1014.5 hPa SSE 7.6 km/h 10.3 km/h 61% 0.0 mm
23:29 17.7 °C 9.8 °C 1014.5 hPa SE 7.1 km/h 13 km/h 60% 0.0 mm
23:34 17.7 °C 9.9 °C 1014.5 hPa SE 6.9 km/h 12.9 km/h 60.4% 0.0 mm
23:39 17.6 °C 10 °C 1014.5 hPa SE 6.6 km/h 10 km/h 61% 0.0 mm
23:44 17.7 °C 10 °C 1014.5 hPa SSE 6.5 km/h 9.7 km/h 60.4% 0.0 mm
23:49 17.9 °C 10 °C 1014.5 hPa SE 6.5 km/h 9.7 km/h 60% 0.0 mm
23:54 18 °C 9.9 °C 1014.8 hPa SE 6.5 km/h 8.4 km/h 59.1% 0.0 mm
23:59 18.2 °C 9.9 °C 1014.8 hPa Sur 5.4 km/h 9.3 km/h 58.4% 0.0 mm
Murcia-Puente Tocinos, España
Compliments of Weather Underground - 3 mb

La estación de MeteoMurcia.com, publica sus datos en los siguientes proyectos:

Weather Underground PWS IMURCIAP2 Meteoclimatic www.awekas.at

W3Counter
Web Analytics